Time;durP1;ratioP1;P1;durP2;ratioP2;P2;SDS_P1;SDS_P2;PMS_P1;PMS_P2;Temp;Humidity;BMP_temperature;BMP_pressure;BME280_temperature;BME280_humidity;BME280_pressure;Samples;Min_cycle;Max_cycle;Signal;HPM_P1;HPM_P2
2021/12/03 00:01:57;;;;;;;18.85;4.55;;;;;;;1.58;94.00;100971.25;5011738;28;20029;-40
2021/12/03 00:04:22;;;;;;;16.50;4.85;;;;;;;1.63;93.18;100979.69;5013290;28;20025;-39
2021/12/03 00:06:48;;;;;;;18.60;5.50;;;;;;;1.64;93.14;100981.41;5013011;28;20114;-41
2021/12/03 00:09:13;;;;;;;18.45;5.20;;;;;;;1.64;92.89;100976.09;5011872;28;20042;-41
2021/12/03 00:11:39;;;;;;;12.07;5.18;;;;;;;1.66;93.52;100990.06;5011975;28;20041;-39
2021/12/03 00:14:04;;;;;;;10.45;4.30;;;;;;;1.67;93.17;100986.47;5013136;28;20080;-40
2021/12/03 00:16:29;;;;;;;13.48;3.83;;;;;;;1.68;92.91;100974.88;5018519;28;20032;-40
2021/12/03 00:18:55;;;;;;;10.77;4.13;;;;;;;1.69;93.27;100973.94;5042345;28;20059;-40
2021/12/03 00:21:22;;;;;;;14.57;4.00;;;;;;;1.70;93.04;100981.75;5049863;28;20028;-40
2021/12/03 00:23:47;;;;;;;6.28;3.72;;;;;;;1.74;93.49;100987.69;5016820;28;20041;-40
2021/12/03 00:26:12;;;;;;;16.88;4.30;;;;;;;1.71;93.29;100988.75;5019649;28;20029;-40
2021/12/03 00:28:38;;;;;;;11.30;3.67;;;;;;;1.74;93.63;100987.69;5036639;28;20025;-41
2021/12/03 00:31:05;;;;;;;12.88;4.00;;;;;;;1.73;93.54;100988.63;5036389;28;20373;-40
2021/12/03 00:33:31;;;;;;;18.25;4.00;;;;;;;1.75;93.26;100984.06;5036476;28;20117;-41
2021/12/03 00:35:59;;;;;;;11.57;3.17;;;;;;;1.78;93.05;100989.09;5036205;28;20036;-41
2021/12/03 00:38:24;;;;;;;18.02;2.95;;;;;;;1.76;93.47;100988.38;5036558;28;20044;-41
2021/12/03 00:40:50;;;;;;;12.45;3.22;;;;;;;1.78;93.24;100998.88;5036312;28;20026;-41
2021/12/03 00:43:16;;;;;;;14.07;3.30;;;;;;;1.77;92.68;100991.91;5036373;28;20041;-40
2021/12/03 00:45:44;;;;;;;8.10;2.90;;;;;;;1.74;92.89;100987.69;5035811;28;20374;-41
2021/12/03 00:48:10;;;;;;;9.80;3.40;;;;;;;1.68;92.32;100988.97;5036323;28;20026;-40
2021/12/03 00:50:35;;;;;;;13.13;2.90;;;;;;;1.66;93.14;100979.44;5036122;28;20362;-41
2021/12/03 00:53:01;;;;;;;13.30;3.38;;;;;;;1.63;92.60;100982.34;5036054;28;20107;-40
2021/12/03 00:55:30;;;;;;;13.15;3.10;;;;;;;1.64;92.97;100981.41;5036150;28;20426;-40
2021/12/03 00:57:55;;;;;;;11.95;3.63;;;;;;;1.64;92.92;100981.41;5036057;28;20025;-41
2021/12/03 01:00:26;;;;;;;16.77;3.70;;;;;;;1.55;93.16;100977.66;5033886;28;20315;-41
2021/12/03 01:02:54;;;;;;;10.43;3.58;;;;;;;1.56;92.95;100978.53;5016139;28;20030;-40
2021/12/03 01:05:20;;;;;;;11.70;3.72;;;;;;;1.57;93.27;100970.41;5020131;28;20034;-40
2021/12/03 01:07:45;;;;;;;12.15;3.17;;;;;;;1.53;93.06;100969.84;5044537;28;20013;-40
2021/12/03 01:10:11;;;;;;;13.23;3.33;;;;;;;1.54;93.46;100960.91;5055935;28;20534;-40
2021/12/03 01:12:37;;;;;;;13.57;3.05;;;;;;;1.61;93.89;100966.56;5032323;28;20540;-40
2021/12/03 01:15:05;;;;;;;15.82;2.80;;;;;;;1.69;93.78;100958.00;5015828;28;20045;-40
2021/12/03 01:17:30;;;;;;;;;;;;;;;1.78;93.74;100951.97;5016159;28;20033;-41
2021/12/03 01:19:56;;;;;;;14.90;2.50;;;;;;;1.80;93.60;100952.69;5015687;28;19919;-40
2021/12/03 01:22:21;;;;;;;11.38;2.78;;;;;;;1.85;93.69;100958.47;5015946;28;20112;-40
2021/12/03 01:24:46;;;;;;;7.90;2.40;;;;;;;1.89;93.58;100965.22;5014575;28;20033;-40
2021/12/03 01:27:12;;;;;;;7.70;2.78;;;;;;;1.92;93.42;100970.28;5026721;28;20033;-40
2021/12/03 01:29:37;;;;;;;10.93;2.75;;;;;;;1.96;93.35;100971.72;5034840;28;20033;-40
2021/12/03 01:32:03;;;;;;;11.20;3.67;;;;;;;1.98;93.18;100961.81;5035260;28;20033;-40
2021/12/03 01:34:28;;;;;;;16.75;3.03;;;;;;;2.00;93.37;100961.69;5035445;28;20470;-40
2021/12/03 01:36:53;;;;;;;18.20;2.72;;;;;;;2.03;92.76;100963.25;5035553;28;20033;-41
2021/12/03 01:39:19;;;;;;;13.52;2.95;;;;;;;2.08;93.14;100966.38;5035667;28;20025;-41
2021/12/03 01:41:45;;;;;;;11.02;2.95;;;;;;;2.10;92.86;100962.63;5035480;28;20039;-40
2021/12/03 01:44:10;;;;;;;13.88;2.88;;;;;;;2.11;92.80;100969.66;5035091;28;20029;-40
2021/12/03 01:46:36;;;;;;;10.88;2.72;;;;;;;2.12;92.30;100970.50;5034957;28;20392;-40
2021/12/03 01:49:04;;;;;;;14.25;2.70;;;;;;;2.20;93.02;100965.41;5033716;28;20045;-40
2021/12/03 01:51:29;;;;;;;15.35;2.85;;;;;;;2.28;92.36;100960.31;5034853;28;20429;-40
2021/12/03 01:53:55;;;;;;;11.88;2.13;;;;;;;2.34;92.38;100965.13;5034949;28;20076;-41
2021/12/03 01:56:21;;;;;;;13.20;2.17;;;;;;;2.42;91.59;100948.53;5035096;28;20039;-40
2021/12/03 01:58:48;;;;;;;15.80;1.90;;;;;;;2.41;91.93;100934.41;5035272;28;20053;-40
2021/12/03 02:01:16;;;;;;;17.48;2.30;;;;;;;2.46;91.81;100927.91;5034750;28;20029;-40
2021/12/03 02:03:45;;;;;;;17.75;2.63;;;;;;;2.50;91.78;100934.63;5033521;28;20479;-40
2021/12/03 02:06:11;;;;;;;7.13;2.08;;;;;;;2.52;91.19;100930.03;5034860;28;20079;-40
2021/12/03 02:08:37;;;;;;;17.75;2.42;;;;;;;2.55;91.66;100929.78;5034859;28;20029;-40
2021/12/03 02:11:04;;;;;;;19.00;2.05;;;;;;;2.58;91.21;100934.81;5035094;28;20040;-40
2021/12/03 02:13:30;;;;;;;16.45;1.70;;;;;;;2.60;91.51;100943.50;5034812;28;20042;-40
2021/12/03 02:15:56;;;;;;;14.70;1.92;;;;;;;2.61;90.97;100945.22;5033261;28;20083;-40
2021/12/03 02:18:21;;;;;;;16.52;1.88;;;;;;;2.59;91.22;100945.34;5034504;28;20037;-40
2021/12/03 02:20:48;;;;;;;13.85;2.13;;;;;;;2.59;91.51;100955.97;5034515;28;20538;-40
2021/12/03 02:23:14;;;;;;;12.95;2.05;;;;;;;2.56;90.84;100955.38;5034396;28;20033;-40
2021/12/03 02:25:41;;;;;;;16.98;1.80;;;;;;;2.54;91.12;100949.34;5034390;28;20377;-40
2021/12/03 02:28:07;;;;;;;12.00;1.80;;;;;;;2.53;91.28;100953.00;5015883;28;20175;-41
2021/12/03 02:30:32;;;;;;;14.27;1.67;;;;;;;2.50;91.38;100943.47;5014560;28;20038;-39
2021/12/03 02:32:57;;;;;;;21.67;2.75;;;;;;;2.50;91.82;100947.91;5014554;28;20029;-39
2021/12/03 02:35:24;;;;;;;14.70;1.90;;;;;;;2.51;91.15;100941.63;5014498;28;20045;-40
2021/12/03 02:37:51;;;;;;;17.67;1.75;;;;;;;2.51;91.83;100937.16;5014463;28;20065;-40
2021/12/03 02:40:17;;;;;;;14.15;1.88;;;;;;;2.49;91.51;100936.44;5014516;28;20099;-40
2021/12/03 02:42:43;;;;;;;9.55;2.03;;;;;;;2.50;91.03;100927.53;5014926;28;20040;-40
2021/12/03 02:45:10;;;;;;;14.32;1.60;;;;;;;2.49;90.85;100933.78;5015035;28;20034;-40
2021/12/03 02:47:36;;;;;;;9.38;1.52;;;;;;;2.48;91.00;100920.66;5014902;28;20037;-41
2021/12/03 02:50:03;;;;;;;12.65;1.60;;;;;;;2.49;91.24;100931.13;5014337;28;20033;-40
2021/12/03 02:52:28;;;;;;;11.82;1.48;;;;;;;2.51;90.49;100937.16;5014204;28;20525;-41
2021/12/03 02:54:54;;;;;;;8.02;1.30;;;;;;;2.56;90.41;100936.78;5029428;28;20114;-40
2021/12/03 02:57:19;;;;;;;9.77;1.42;;;;;;;2.59;90.89;100944.50;5014197;28;20044;-40
2021/12/03 02:59:44;;;;;;;15.60;2.03;;;;;;;2.64;89.96;100929.03;5014312;28;20064;-40
2021/12/03 03:02:10;;;;;;;6.82;1.58;;;;;;;2.70;90.24;100935.63;5030869;28;20433;-40
2021/12/03 03:04:35;;;;;;;10.00;1.20;;;;;;;2.75;89.46;100936.94;5033843;28;20487;-40
2021/12/03 03:07:01;;;;;;;7.10;1.48;;;;;;;2.76;89.70;100933.28;5033596;28;20034;-41
2021/12/03 03:09:26;;;;;;;10.52;1.35;;;;;;;2.82;89.59;100932.78;5033809;28;20033;-40
2021/12/03 03:11:52;;;;;;;12.30;2.13;;;;;;;2.86;89.84;100934.19;5032186;28;20034;-41
2021/12/03 03:14:17;;;;;;;8.52;1.52;;;;;;;2.91;89.83;100930.31;5033733;28;20065;-41
2021/12/03 03:16:43;;;;;;;11.23;1.30;;;;;;;2.98;88.95;100928.84;5033629;28;20370;-40
2021/12/03 03:19:19;;;;;;;6.45;1.98;;;;;;;2.99;89.01;100918.06;5033658;28;20052;-41
2021/12/03 03:21:46;;;;;;;7.35;1.10;;;;;;;3.01;89.00;100902.81;5033593;28;20030;-40
2021/12/03 03:24:12;;;;;;;8.40;1.30;;;;;;;3.05;89.97;100895.41;5032141;28;20029;-40
2021/12/03 03:26:40;;;;;;;9.68;2.10;;;;;;;3.06;89.98;100897.94;5033249;28;20034;-40
2021/12/03 03:29:06;;;;;;;9.73;1.60;;;;;;;3.07;89.78;100888.16;5045674;28;20028;-40
2021/12/03 03:31:33;;;;;;;14.65;1.50;;;;;;;3.08;90.06;100892.47;5033522;28;20091;-40
2021/12/03 03:33:59;;;;;;;9.55;1.30;;;;;;;3.06;90.50;100902.44;5033562;28;20024;-39
2021/12/03 03:36:24;;;;;;;21.45;3.83;;;;;;;3.09;89.97;100886.19;5015610;28;20377;-40
2021/12/03 03:38:50;;;;;;;15.57;5.10;;;;;;;3.09;89.87;100888.88;5033272;28;20029;-39
2021/12/03 03:41:15;;;;;;;22.27;7.97;;;;;;;3.06;90.44;100876.66;5033427;28;20029;-40
2021/12/03 03:43:41;;;;;;;19.88;6.25;;;;;;;3.07;90.54;100877.50;5031779;28;20025;-40
2021/12/03 03:46:06;;;;;;;19.83;5.75;;;;;;;3.10;91.11;100874.59;5033198;28;20049;-40
2021/12/03 03:48:31;;;;;;;10.23;3.75;;;;;;;3.12;91.47;100869.97;5033211;28;20392;-40
2021/12/03 03:50:57;;;;;;;25.90;3.85;;;;;;;3.15;91.82;100868.88;5033142;28;20045;-40
2021/12/03 03:53:23;;;;;;;19.13;3.78;;;;;;;3.17;91.82;100867.75;5032791;28;20025;-40
2021/12/03 03:55:48;;;;;;;13.27;3.25;;;;;;;3.22;91.59;100870.88;5033029;28;20029;-41
2021/12/03 03:58:13;;;;;;;15.07;3.88;;;;;;;3.24;91.66;100871.59;5033041;28;20034;-41
2021/12/03 04:00:41;;;;;;;16.92;3.08;;;;;;;3.25;91.58;100864.44;5032341;28;20034;-40
2021/12/03 04:03:07;;;;;;;21.10;2.50;;;;;;;3.25;91.80;100862.63;5033024;28;20028;-41
2021/12/03 04:05:33;;;;;;;13.30;2.35;;;;;;;3.24;91.70;100868.91;5037161;28;20024;-41
2021/12/03 04:07:59;;;;;;;9.48;2.33;;;;;;;3.24;91.87;100863.59;5040196;28;20399;-41
2021/12/03 04:10:24;;;;;;;17.92;3.42;;;;;;;3.24;91.34;100868.91;5052986;28;20025;-41
2021/12/03 04:12:50;;;;;;;21.55;2.75;;;;;;;3.22;91.64;100864.72;5051559;28;20029;-41
2021/12/03 04:15:16;;;;;;;15.27;2.10;;;;;;;3.17;92.32;100869.59;5052782;28;20516;-41
2021/12/03 04:17:42;;;;;;;15.80;2.20;;;;;;;3.19;92.28;100879.13;5052600;28;20082;-40
2021/12/03 04:20:09;;;;;;;10.25;2.15;;;;;;;3.20;91.94;100883.44;5052915;28;20021;-41
2021/12/03 04:22:35;;;;;;;15.00;2.08;;;;;;;3.20;92.26;100880.78;5052831;28;20029;-41
2021/12/03 04:25:01;;;;;;;22.63;2.53;;;;;;;3.22;92.17;100892.16;5052704;28;20134;-40
2021/12/03 04:27:26;;;;;;;13.05;2.42;;;;;;;3.24;92.77;100887.53;5021574;28;20144;-40
2021/12/03 04:29:51;;;;;;;13.35;2.00;;;;;;;3.27;92.44;100873.97;5032686;28;20055;-41
2021/12/03 04:32:17;;;;;;;15.43;2.65;;;;;;;3.30;92.16;100868.38;5032703;28;20045;-41
2021/12/03 04:34:43;;;;;;;14.57;2.53;;;;;;;3.34;92.00;100868.09;5031285;28;20036;-40
2021/12/03 04:37:09;;;;;;;18.88;3.05;;;;;;;3.34;91.83;100862.78;5031679;28;20025;-40
2021/12/03 04:39:34;;;;;;;11.85;1.98;;;;;;;3.38;91.40;100850.91;5031179;28;20339;-41
2021/12/03 04:41:59;;;;;;;15.73;2.58;;;;;;;3.30;91.96;100844.44;5032537;28;20029;-41
2021/12/03 04:44:25;;;;;;;12.45;2.47;;;;;;;3.28;92.33;100846.38;5030695;28;20108;-40
2021/12/03 04:46:50;;;;;;;11.73;2.42;;;;;;;3.24;92.12;100852.97;5032556;28;20037;-41
2021/12/03 04:49:15;;;;;;;16.50;3.65;;;;;;;3.23;93.06;100848.59;5047959;28;20118;-40
2021/12/03 04:51:41;;;;;;;19.67;2.42;;;;;;;3.24;92.77;100841.50;5031898;28;20026;-40
2021/12/03 04:54:06;;;;;;;16.95;3.22;;;;;;;3.25;92.32;100836.00;5024099;28;20470;-40
2021/12/03 04:56:32;;;;;;;10.95;2.30;;;;;;;3.30;92.10;100836.47;5031893;28;20442;-40
2021/12/03 04:58:57;;;;;;;18.52;2.72;;;;;;;3.34;91.43;100826.38;5032510;28;20048;-40
2021/12/03 05:01:23;;;;;;;19.58;3.67;;;;;;;3.36;92.22;100831.56;5022208;28;20030;-41
2021/12/03 05:03:48;;;;;;;20.67;2.30;;;;;;;3.42;91.35;100833.69;5034069;28;20064;-40
2021/12/03 05:06:28;;;;;;;16.30;3.35;;;;;;;3.44;91.01;100826.41;5047566;28;20036;-41
2021/12/03 05:08:53;;;;;;;20.73;2.78;;;;;;;3.47;90.85;100820.81;5045624;28;20373;-40
2021/12/03 05:11:19;;;;;;;8.50;2.00;;;;;;;3.52;90.33;100823.91;5040030;28;20034;-41
2021/12/03 05:13:44;;;;;;;24.13;3.30;;;;;;;3.54;89.99;100824.63;5045078;28;20037;-41
2021/12/03 05:16:09;;;;;;;12.93;2.33;;;;;;;3.58;89.23;100822.50;5041650;28;20048;-40
2021/12/03 05:18:35;;;;;;;15.73;2.03;;;;;;;3.58;89.00;100826.03;5055654;28;20166;-41
2021/12/03 05:21:02;;;;;;;11.43;2.00;;;;;;;3.64;88.42;100816.66;5046156;28;20026;-40
2021/12/03 05:23:29;;;;;;;20.55;2.17;;;;;;;3.67;86.57;100809.22;5035804;28;20045;-41
2021/12/03 05:25:55;;;;;;;12.53;2.27;;;;;;;3.77;83.94;100821.72;5034573;28;20191;-41
2021/12/03 05:28:21;;;;;;;11.60;2.05;;;;;;;3.84;83.24;100822.84;5034053;28;20743;-40
2021/12/03 05:30:47;;;;;;;5.82;1.42;;;;;;;3.90;82.18;100823.13;5034779;28;20337;-40
2021/12/03 05:33:12;;;;;;;15.30;1.75;;;;;;;3.93;81.90;100819.34;5021419;28;20030;-40
2021/12/03 05:35:38;;;;;;;13.20;2.63;;;;;;;3.88;85.91;100818.94;5028857;28;20044;-40
2021/12/03 05:38:03;;;;;;;21.08;3.10;;;;;;;3.78;87.38;100815.41;5034875;28;20381;-41
2021/12/03 05:40:30;;;;;;;13.25;3.30;;;;;;;3.65;88.56;100805.88;5041289;28;20029;-40
2021/12/03 05:42:55;;;;;;;28.38;4.28;;;;;;;3.52;89.85;100805.28;5051739;28;20051;-42
2021/12/03 05:45:33;;;;;;;19.67;3.85;;;;;;;3.49;90.31;100801.06;5032673;28;20042;-40
2021/12/03 05:47:59;;;;;;;25.60;3.95;;;;;;;3.47;90.33;100794.22;5024810;28;20064;-41
2021/12/03 05:50:25;;;;;;;17.40;3.50;;;;;;;3.42;90.36;100796.44;5034606;28;20041;-40
2021/12/03 05:52:52;;;;;;;16.17;3.70;;;;;;;3.43;90.78;100795.47;5034419;28;20042;-40
2021/12/03 05:55:17;;;;;;;30.15;4.30;;;;;;;3.47;90.90;100794.22;5034383;28;20032;-40
2021/12/03 05:57:44;;;;;;;23.80;3.92;;;;;;;3.47;90.43;100799.53;5034748;28;20104;-40
2021/12/03 06:00:31;;;;;;;25.05;4.40;;;;;;;3.48;90.62;100796.75;5034315;28;20053;-41
2021/12/03 06:02:59;;;;;;;25.25;4.03;;;;;;;3.50;90.25;100799.25;5034905;28;20041;-41
2021/12/03 06:05:26;;;;;;;43.05;4.47;;;;;;;3.54;89.74;100799.84;5034301;28;20107;-41
2021/12/03 06:07:51;;;;;;;21.67;3.72;;;;;;;3.57;88.97;100800.38;5032813;28;20037;-41
2021/12/03 06:10:17;;;;;;;13.25;3.58;;;;;;;3.64;88.28;100801.53;5034089;28;20040;-41
2021/12/03 06:12:43;;;;;;;21.10;3.35;;;;;;;3.68;87.77;100797.59;5033813;28;20032;-42
2021/12/03 06:15:09;;;;;;;20.77;4.13;;;;;;;3.73;87.80;100806.00;5033799;28;20021;-40
2021/12/03 06:17:34;;;;;;;18.45;3.40;;;;;;;3.75;87.56;100797.91;5032859;28;20061;-41
2021/12/03 06:20:00;;;;;;;25.27;3.38;;;;;;;3.80;86.86;100800.16;5033630;28;20034;-41
2021/12/03 06:22:25;;;;;;;12.77;2.55;;;;;;;3.83;86.61;100806.03;5032126;28;20084;-40
2021/12/03 06:24:51;;;;;;;20.38;2.55;;;;;;;3.89;84.57;100797.47;5032905;28;20049;-41
2021/12/03 06:27:16;;;;;;;21.83;2.58;;;;;;;4.01;81.84;100792.88;5033772;28;20370;-41
2021/12/03 06:29:41;;;;;;;18.75;2.30;;;;;;;4.05;80.28;100794.25;5033574;28;20025;-41
2021/12/03 06:32:09;;;;;;;18.13;2.63;;;;;;;4.09;78.65;100790.34;5033300;28;20032;-41
2021/12/03 06:34:35;;;;;;;17.45;2.60;;;;;;;4.23;74.77;100785.56;5033381;28;20035;-42
2021/12/03 06:37:01;;;;;;;12.60;2.58;;;;;;;4.29;75.63;100803.63;5031658;28;20489;-41
2021/12/03 06:39:26;;;;;;;12.02;2.17;;;;;;;4.25;75.10;100796.91;5030128;28;20095;-41
2021/12/03 06:41:51;;;;;;;18.42;3.00;;;;;;;4.27;75.08;100789.63;5031606;28;20096;-42
2021/12/03 06:44:17;;;;;;;12.10;1.92;;;;;;;4.23;74.90;100789.06;5032565;28;20034;-41
2021/12/03 06:46:43;;;;;;;15.60;2.75;;;;;;;4.21;78.07;100775.03;5031403;28;20068;-41
2021/12/03 06:49:08;;;;;;;31.70;3.78;;;;;;;4.05;81.72;100782.75;5031518;28;20033;-41
2021/12/03 06:51:40;;;;;;;18.73;3.83;;;;;;;3.93;83.26;100782.91;5031717;28;20064;-41
2021/12/03 06:54:06;;;;;;;17.33;3.85;;;;;;;3.82;84.57;100776.88;5032721;28;20037;-40
2021/12/03 06:56:43;;;;;;;21.70;3.80;;;;;;;3.77;84.87;100779.97;5032778;28;20021;-40
2021/12/03 06:59:08;;;;;;;27.38;5.07;;;;;;;3.66;85.63;100780.94;5013418;28;20029;-41
2021/12/03 07:01:34;;;;;;;29.08;5.82;;;;;;;3.53;86.02;100788.34;5027837;28;20094;-41
2021/12/03 07:03:59;;;;;;;27.30;5.43;;;;;;;3.47;85.72;100794.22;5031961;28;20041;-41
2021/12/03 07:06:24;;;;;;;30.08;5.35;;;;;;;3.40;85.61;100803.72;5030405;28;20032;-40
2021/12/03 07:08:50;;;;;;;23.23;5.00;;;;;;;3.30;85.17;100803.69;5032256;28;20025;-41
2021/12/03 07:11:15;;;;;;;18.95;5.05;;;;;;;3.27;85.35;100783.53;5026510;28;20029;-41
2021/12/03 07:13:40;;;;;;;26.48;5.80;;;;;;;3.27;85.89;100788.84;5030406;28;20033;-41
2021/12/03 07:16:06;;;;;;;29.65;5.50;;;;;;;3.27;85.63;100788.03;5027060;28;20064;-40
2021/12/03 07:18:31;;;;;;;31.25;5.10;;;;;;;3.21;85.46;100784.09;5025137;28;20554;-41
2021/12/03 07:20:56;;;;;;;29.15;5.72;;;;;;;3.19;84.43;100771.91;5032029;28;20140;-41
2021/12/03 07:23:22;;;;;;;19.10;5.47;;;;;;;3.12;84.82;100776.06;5031748;28;20113;-41
2021/12/03 07:25:47;;;;;;;28.40;5.85;;;;;;;3.14;85.48;100774.97;5045973;28;20032;-40
2021/12/03 07:28:13;;;;;;;22.65;4.22;;;;;;;3.07;84.50;100771.16;5030631;28;20428;-42
2021/12/03 07:30:38;;;;;;;27.25;5.90;;;;;;;3.08;84.60;100770.16;5031461;28;20120;-40
2021/12/03 07:33:07;;;;;;;22.67;4.10;;;;;;;3.08;84.35;100770.16;5031553;28;20461;-41
2021/12/03 07:35:32;;;;;;;26.08;4.18;;;;;;;3.06;84.49;100769.47;5030898;28;20053;-41
2021/12/03 07:37:58;;;;;;;19.73;4.25;;;;;;;3.07;84.41;100771.16;5032441;28;20063;-42
2021/12/03 07:40:23;;;;;;;30.58;4.53;;;;;;;3.02;83.70;100758.25;5031804;28;20061;-42
2021/12/03 07:42:50;;;;;;;30.40;5.00;;;;;;;3.00;83.63;100754.91;5031586;28;20064;-42
2021/12/03 07:45:16;;;;;;;20.15;5.32;;;;;;;2.96;83.82;100763.28;5030510;28;20437;-41
2021/12/03 07:47:42;;;;;;;26.80;5.25;;;;;;;2.93;83.23;100758.25;5029718;28;20473;-41
2021/12/03 07:50:21;;;;;;;27.95;5.45;;;;;;;2.95;83.73;100757.13;5068505;28;20399;-41
2021/12/03 07:52:47;;;;;;;19.88;4.32;;;;;;;2.97;83.52;100755.16;5057960;28;20493;-41
2021/12/03 07:55:12;;;;;;;21.27;4.40;;;;;;;2.95;83.33;100750.94;5049188;28;20099;-42
2021/12/03 07:57:38;;;;;;;18.77;3.95;;;;;;;2.91;83.51;100749.56;5060492;28;20087;-41
2021/12/03 08:00:06;;;;;;;27.33;4.72;;;;;;;2.91;84.09;100752.22;5053742;28;20072;-42
2021/12/03 08:02:31;;;;;;;20.60;4.80;;;;;;;2.94;84.56;100749.28;5066283;28;20082;-41
2021/12/03 08:04:57;;;;;;;18.90;5.03;;;;;;;2.93;83.85;100736.97;5053894;28;20037;-41
2021/12/03 08:07:22;;;;;;;16.92;4.45;;;;;;;2.94;84.17;100736.00;5049950;28;20083;-42
2021/12/03 08:09:48;;;;;;;18.05;4.53;;;;;;;2.91;84.41;100742.41;5050124;28;20040;-41
2021/12/03 08:12:13;;;;;;;22.83;5.10;;;;;;;2.97;85.42;100741.03;5052248;28;20131;-42
2021/12/03 08:14:39;;;;;;;25.77;5.05;;;;;;;2.97;85.47;100738.38;5062269;28;20036;-42
2021/12/03 08:17:04;;;;;;;21.30;4.97;;;;;;;2.96;84.67;100728.72;5048957;28;20107;-43
2021/12/03 08:19:29;;;;;;;9.75;4.05;;;;;;;2.96;85.84;100726.91;5063522;28;20083;-41
2021/12/03 08:21:55;;;;;;;19.88;4.70;;;;;;;2.99;85.39;100731.09;5068938;28;20025;-41
2021/12/03 08:24:20;;;;;;;21.42;4.40;;;;;;;3.02;84.70;100730.84;5065714;28;20044;-42
2021/12/03 08:26:46;;;;;;;20.90;3.97;;;;;;;3.03;84.92;100722.72;5066996;28;20033;-40
2021/12/03 08:29:11;;;;;;;16.10;4.07;;;;;;;3.06;84.48;100719.78;5066951;28;20127;-40
2021/12/03 08:31:39;;;;;;;17.55;4.07;;;;;;;3.12;84.30;100715.75;5055267;28;20025;-42
2021/12/03 08:34:04;;;;;;;15.75;3.70;;;;;;;3.12;84.61;100707.78;5063629;28;20029;-41
2021/12/03 08:36:30;;;;;;;19.85;3.47;;;;;;;3.13;84.54;100709.44;5066849;28;20174;-41
2021/12/03 08:38:55;;;;;;;16.88;3.47;;;;;;;3.15;83.33;100709.31;5063004;28;20064;-40
2021/12/03 08:41:20;;;;;;;6.78;2.38;;;;;;;3.17;84.58;100710.03;5059815;28;20094;-41
2021/12/03 08:43:47;;;;;;;15.27;2.47;;;;;;;3.17;84.15;100715.34;5055813;28;20026;-41
2021/12/03 08:46:27;;;;;;;9.80;2.47;;;;;;;3.16;83.08;100705.66;5057555;28;20033;-42
2021/12/03 08:48:53;;;;;;;11.15;2.67;;;;;;;3.17;83.46;100713.53;5051197;28;20056;-41
2021/12/03 08:51:34;;;;;;;8.32;2.08;;;;;;;3.21;83.27;100701.66;5046660;28;20021;-43
2021/12/03 08:56:43;;;;;;;15.40;2.50;;;;;;;3.24;81.91;100705.84;5049039;28;20512;-41
2021/12/03 08:59:08;;;;;;;17.65;2.45;;;;;;;3.25;82.45;100699.53;5060327;28;20037;-41
2021/12/03 09:01:34;;;;;;;17.65;3.17;;;;;;;3.23;81.62;100686.38;5043562;28;20608;-42
2021/12/03 09:03:59;;;;;;;8.98;2.25;;;;;;;3.24;81.90;100674.75;5045937;28;20072;-41
2021/12/03 09:06:26;;;;;;;16.15;3.20;;;;;;;3.27;81.63;100679.81;5036712;28;22251;-41
2021/12/03 09:08:52;;;;;;;13.23;2.70;;;;;;;3.31;80.32;100677.69;5034245;28;20037;-41
2021/12/03 09:11:18;;;;;;;11.25;2.25;;;;;;;3.33;80.33;100669.59;5034537;28;20385;-41
2021/12/03 09:13:45;;;;;;;11.25;2.53;;;;;;;3.34;79.98;100672.09;5040083;28;20029;-41
2021/12/03 09:16:14;;;;;;;15.15;2.75;;;;;;;3.43;80.43;100659.78;5037516;28;20052;-41
2021/12/03 09:18:42;;;;;;;20.52;2.95;;;;;;;3.42;80.67;100655.44;5033608;28;20029;-41
2021/12/03 09:21:21;;;;;;;24.75;3.13;;;;;;;3.44;80.69;100672.94;5049163;28;20577;-41
2021/12/03 09:26:17;;;;;;;15.15;2.65;;;;;;;3.56;80.58;100660.34;5054511;28;20063;-41
2021/12/03 09:28:50;;;;;;;11.82;2.35;;;;;;;3.45;81.46;100647.16;5047530;28;20060;-41
2021/12/03 09:31:16;;;;;;;29.00;5.72;;;;;;;3.44;81.66;100651.66;5035816;28;20068;-40
2021/12/03 09:33:45;;;;;;;8.45;2.78;;;;;;;3.44;81.74;100656.13;5034361;28;20033;-42
2021/12/03 09:36:11;;;;;;;21.60;4.40;;;;;;;3.38;81.43;100656.72;5034344;28;20434;-40
2021/12/03 09:38:37;;;;;;;14.10;3.72;;;;;;;3.27;81.36;100661.19;5034379;28;20060;-40
2021/12/03 09:41:13;;;;;;;11.90;3.03;;;;;;;3.23;81.40;100641.16;5035749;28;20026;-40
2021/12/03 09:43:42;;;;;;;11.48;3.17;;;;;;;3.24;82.76;100624.22;5046892;28;20076;-41
2021/12/03 09:51:29;;;;;;;9.88;3.30;;;;;;;3.22;83.03;100609.41;5033806;28;20056;-41
2021/12/03 09:54:18;;;;;;;12.25;2.72;;;;;;;3.22;83.44;100610.22;5036625;28;20433;-42
2021/12/03 09:56:44;;;;;;;12.82;3.17;;;;;;;3.21;84.33;100605.91;5033411;28;20529;-40
2021/12/03 10:28:50;;;;;;;21.48;6.18;;;;;;;3.06;89.65;100565.59;5033870;28;20148;-42
2021/12/03 10:45:11;;;;;;;12.05;3.63;;;;;;;3.52;85.14;100552.50;5030072;28;20053;-41
2021/12/03 10:52:58;;;;;;;13.85;3.67;;;;;;;3.64;83.80;100540.72;5052512;28;20045;-42
2021/12/03 11:30:51;;;;;;;9.65;3.47;;;;;;;3.82;81.33;100454.75;5036485;28;20496;-42
2021/12/03 11:44:46;;;;;;;14.77;3.92;;;;;;;3.73;81.27;100420.06;5041624;28;20171;-41
2021/12/03 11:58:26;;;;;;;8.77;3.75;;;;;;;3.90;80.57;100396.31;5033683;28;20140;-41
2021/12/03 12:04:13;;;;;;;16.67;3.72;;;;;;;4.00;80.73;100407.72;5034911;28;20076;-41
2021/12/03 12:12:43;;;;;;;14.15;3.72;;;;;;;3.97;81.23;100386.72;5033626;28;20160;-41
2021/12/03 12:15:08;;;;;;;15.45;3.88;;;;;;;4.01;81.01;100361.47;5035935;28;20079;-41
2021/12/03 12:21:08;;;;;;;11.93;4.13;;;;;;;4.00;81.33;100362.47;5022640;28;20033;-41
2021/12/03 12:40:37;;;;;;;;;;;;;;;4.06;83.18;100364.53;5090134;28;20047;-42
2021/12/03 13:06:06;;;;;;;11.68;4.63;;;;;;;3.96;85.65;100326.50;5092264;28;20101;-41
2021/12/03 13:42:13;;;;;;;9.57;5.93;;;;;;;3.80;89.06;100307.69;5108043;28;20046;-41
2021/12/03 14:11:29;;;;;;;10.40;7.88;;;;;;;3.82;90.23;100303.91;5094560;28;20076;-42
2021/12/03 14:43:34;;;;;;;17.42;12.73;;;;;;;3.70;94.42;100275.81;5010405;28;20185;-40
2021/12/03 14:48:51;;;;;;;22.70;14.00;;;;;;;3.68;95.43;100253.84;5093879;28;20043;-41
2021/12/03 14:51:43;;;;;;;20.75;13.90;;;;;;;3.66;94.72;100256.66;5077792;28;20055;-40
2021/12/03 14:57:09;;;;;;;16.98;14.82;;;;;;;3.68;95.63;100253.84;5091445;28;20063;-41
2021/12/03 14:59:37;;;;;;;16.70;13.52;;;;;;;3.67;94.93;100266.31;5081862;28;20050;-41
2021/12/03 15:02:36;;;;;;;16.17;13.75;;;;;;;3.70;94.88;100252.69;5093240;28;20118;-42
2021/12/03 15:05:14;;;;;;;23.00;14.30;;;;;;;3.73;94.87;100239.09;5093153;28;20497;-42
2021/12/03 15:07:43;;;;;;;16.42;13.00;;;;;;;3.73;94.48;100241.75;5093729;28;20032;-43
2021/12/03 15:10:15;;;;;;;16.08;11.93;;;;;;;3.80;94.55;100242.00;5063544;28;20546;-42
2021/12/03 15:23:45;;;;;;;14.85;13.35;;;;;;;3.84;93.85;100231.84;5059266;28;20107;-40
2021/12/03 15:33:53;;;;;;;17.40;14.73;;;;;;;3.90;93.17;100225.94;5092592;28;20028;-40
2021/12/03 15:58:08;;;;;;;20.23;13.93;;;;;;;4.04;92.87;100201.41;5092095;28;20123;-41
2021/12/03 16:06:54;;;;;;;35.53;21.30;;;;;;;4.05;93.21;100188.94;5072226;28;20028;-41
2021/12/03 16:08:50;;;;;;;18.70;14.18;;;;;;;4.03;93.79;100194.44;5053429;28;20054;-41
2021/12/03 16:11:23;;;;;;;22.48;15.77;;;;;;;4.02;94.05;100189.25;5087026;28;20036;-41
2021/12/03 16:14:04;;;;;;;24.35;16.48;;;;;;;3.99;93.83;100195.72;5083814;28;20043;-41
2021/12/03 16:16:57;;;;;;;21.48;15.80;;;;;;;3.98;94.43;100194.06;5078173;28;20056;-41
2021/12/03 16:53:48;;;;;;;24.20;17.65;;;;;;;4.03;94.59;100178.44;5076419;28;20047;-40
2021/12/03 16:56:27;;;;;;;22.15;17.38;;;;;;;4.01;94.70;100175.09;5081828;28;20029;-40
2021/12/03 16:58:55;;;;;;;25.50;19.38;;;;;;;4.02;94.87;100168.78;5078530;28;20031;-41
2021/12/03 17:03:58;;;;;;;27.10;19.80;;;;;;;4.03;94.68;100157.16;5058327;28;20037;-41
2021/12/03 17:11:38;;;;;;;23.38;17.27;;;;;;;4.10;94.28;100136.88;5062655;28;20104;-43
2021/12/03 17:17:19;;;;;;;25.20;17.67;;;;;;;4.12;94.04;100145.53;5084845;28;20085;-41
2021/12/03 17:55:10;;;;;;;30.88;21.10;;;;;;;4.06;95.00;100124.88;5092689;28;20404;-41
2021/12/03 17:57:59;;;;;;;39.80;22.92;;;;;;;4.05;95.49;100123.19;5089907;28;20052;-42
2021/12/03 18:00:39;;;;;;;34.63;23.33;;;;;;;4.04;95.54;100116.19;5079711;28;20047;-42